createdAt,value
2019-05-05T00:01:06.998Z,0.60
2019-05-05T00:03:39.574Z,0.50
2019-05-05T00:06:11.741Z,0.50
2019-05-05T00:08:42.577Z,0.50
2019-05-05T00:11:24.534Z,0.40
2019-05-05T00:13:57.222Z,0.40
2019-05-05T00:16:36.892Z,0.30
2019-05-05T00:19:07.792Z,0.20
2019-05-05T00:21:38.666Z,0.30
2019-05-05T00:24:09.604Z,0.30
2019-05-05T00:26:40.447Z,0.20
2019-05-05T00:29:11.332Z,0.20
2019-05-05T00:31:42.314Z,0.20
2019-05-05T00:34:14.948Z,0.20
2019-05-05T00:36:47.263Z,0.10
2019-05-05T00:39:18.222Z,0.10
2019-05-05T00:41:48.998Z,0.00
2019-05-05T00:44:19.734Z,0.10
2019-05-05T00:46:55.088Z,0.10
2019-05-05T00:49:27.885Z,0.00
2019-05-05T00:52:00.352Z,0.10
2019-05-05T00:54:31.265Z,0.00
2019-05-05T00:57:04.450Z,0.00
2019-05-05T00:59:35.343Z,-0.10
2019-05-05T01:02:16.912Z,0.00
2019-05-05T01:04:55.338Z,-0.10
2019-05-05T01:07:26.260Z,-0.10
2019-05-05T01:09:57.403Z,-0.20
2019-05-05T01:12:28.475Z,-0.10
2019-05-05T01:14:59.341Z,-0.10
2019-05-05T01:17:30.420Z,-0.10
2019-05-05T01:20:04.586Z,-0.10
2019-05-05T01:22:34.228Z,-0.20
2019-05-05T01:25:06.812Z,-0.20
2019-05-05T01:27:37.779Z,-0.20
2019-05-05T01:30:12.040Z,-0.20
2019-05-05T01:32:50.671Z,-0.40
2019-05-05T01:35:21.624Z,-0.30
2019-05-05T01:37:54.815Z,-0.30
2019-05-05T01:40:44.670Z,-0.30
2019-05-05T01:43:16.187Z,-0.30
2019-05-05T01:45:47.161Z,-0.40
2019-05-05T01:48:18.124Z,-0.40
2019-05-05T01:50:49.006Z,-0.50
2019-05-05T01:53:20.873Z,-0.50
2019-05-05T01:55:51.760Z,-0.50
2019-05-05T01:58:24.426Z,-0.60
2019-05-05T02:00:55.451Z,-0.50
2019-05-05T02:03:26.308Z,-0.50
2019-05-05T02:05:57.217Z,-0.50
2019-05-05T02:08:28.080Z,-0.50
2019-05-05T02:10:59.240Z,-0.60
2019-05-05T02:13:30.222Z,-0.50
2019-05-05T02:16:01.005Z,-0.60
2019-05-05T02:18:31.956Z,-0.60
2019-05-05T02:21:08.112Z,-0.60
2019-05-05T02:23:38.845Z,-0.60
2019-05-05T02:26:11.113Z,-0.60
2019-05-05T02:28:45.329Z,-0.60
2019-05-05T02:31:17.864Z,-0.70
2019-05-05T02:33:48.706Z,-0.60
2019-05-05T02:36:21.025Z,-0.70
2019-05-05T02:38:51.921Z,-0.70
2019-05-05T02:41:25.489Z,-0.70
2019-05-05T02:43:56.806Z,-0.60
2019-05-05T02:46:35.426Z,-0.70
2019-05-05T02:49:05.638Z,-0.80
2019-05-05T02:51:38.442Z,-0.80
2019-05-05T02:54:09.477Z,-0.80
2019-05-05T02:56:43.635Z,-0.90
2019-05-05T02:59:17.770Z,-0.90
2019-05-05T03:01:53.925Z,-0.90
2019-05-05T03:04:25.448Z,-0.90
2019-05-05T03:06:59.802Z,-0.90
2019-05-05T03:09:31.917Z,-1.00
2019-05-05T03:12:04.918Z,-0.90
2019-05-05T03:14:39.457Z,-0.90
2019-05-05T03:17:14.498Z,-0.90
2019-05-05T03:19:45.474Z,-0.90
2019-05-05T03:22:16.668Z,-0.90
2019-05-05T03:24:47.941Z,-0.90
2019-05-05T03:27:20.257Z,-0.90
2019-05-05T03:29:53.394Z,-1.00
2019-05-05T03:32:25.556Z,-0.90
2019-05-05T03:34:57.750Z,-0.90
2019-05-05T03:37:30.870Z,-0.90
2019-05-05T03:40:04.261Z,-1.00
2019-05-05T03:42:40.055Z,-1.00
2019-05-05T03:45:14.532Z,-1.10
2019-05-05T03:47:46.831Z,-1.00
2019-05-05T03:50:17.940Z,-1.10
2019-05-05T03:52:49.317Z,-1.00
2019-05-05T03:55:20.367Z,-1.00
2019-05-05T03:57:53.801Z,-1.00
2019-05-05T04:00:33.979Z,-0.90
2019-05-05T04:03:06.741Z,-0.90
2019-05-05T04:05:39.502Z,-0.90
2019-05-05T04:08:11.429Z,-0.80
2019-05-05T04:10:43.926Z,-0.80
2019-05-05T04:13:14.942Z,-0.80
2019-05-05T04:15:47.407Z,-0.70
2019-05-05T04:18:25.804Z,-0.80
2019-05-05T04:20:56.821Z,-0.60
2019-05-05T04:23:28.583Z,-0.60
2019-05-05T04:25:59.661Z,-0.40
2019-05-05T04:28:30.452Z,0.00
2019-05-05T04:31:04.215Z,0.80
2019-05-05T04:33:35.120Z,1.40
2019-05-05T04:36:05.970Z,1.90
2019-05-05T04:38:36.809Z,1.80
2019-05-05T04:41:08.636Z,1.40
2019-05-05T04:43:39.502Z,1.00
2019-05-05T04:46:11.381Z,0.70
2019-05-05T04:48:56.190Z,0.50
2019-05-05T04:51:44.789Z,0.50
2019-05-05T04:54:24.297Z,0.40
2019-05-05T04:56:55.073Z,0.40
2019-05-05T04:59:26.463Z,0.50
2019-05-05T05:02:00.825Z,0.50
2019-05-05T05:04:33.708Z,0.60
2019-05-05T05:07:05.255Z,0.70
2019-05-05T05:09:37.746Z,0.90
2019-05-05T05:12:09.168Z,1.10
2019-05-05T05:14:40.524Z,1.60
2019-05-05T05:17:14.101Z,2.90
2019-05-05T05:19:46.969Z,4.30
2019-05-05T05:22:18.245Z,5.50
2019-05-05T05:24:49.932Z,6.30
2019-05-05T05:27:21.375Z,7.10
2019-05-05T05:29:55.366Z,7.80
2019-05-05T05:32:26.716Z,8.20
2019-05-05T05:34:58.150Z,8.50
2019-05-05T05:37:29.615Z,8.90
2019-05-05T05:40:04.192Z,8.90
2019-05-05T05:42:36.206Z,9.30
2019-05-05T05:45:15.729Z,9.40
2019-05-05T05:47:53.707Z,9.50
2019-05-05T05:50:26.626Z,9.60
2019-05-05T05:52:59.823Z,9.60
2019-05-05T05:55:31.057Z,9.70
2019-05-05T05:58:04.607Z,10.40
2019-05-05T06:00:36.208Z,10.70
2019-05-05T06:03:09.289Z,11.20
2019-05-05T06:05:40.469Z,11.20
2019-05-05T06:08:13.926Z,11.40
2019-05-05T06:10:44.735Z,11.00
2019-05-05T06:13:16.304Z,11.30
2019-05-05T06:15:47.249Z,11.70
2019-05-05T06:18:18.139Z,12.00
2019-05-05T06:20:49.026Z,12.90
2019-05-05T06:23:19.858Z,12.70
2019-05-05T06:25:51.719Z,12.90
2019-05-05T06:28:23.688Z,13.60
2019-05-05T06:30:56.155Z,13.30
2019-05-05T06:33:27.024Z,14.10
2019-05-05T06:35:59.517Z,14.40
2019-05-05T06:38:30.400Z,14.70
2019-05-05T06:41:09.851Z,14.00
2019-05-05T06:43:48.390Z,14.00
2019-05-05T06:46:27.489Z,14.50
2019-05-05T06:48:59.338Z,14.80
2019-05-05T06:51:30.144Z,15.40
2019-05-05T06:54:01.009Z,15.90
2019-05-05T06:56:31.843Z,16.10
2019-05-05T06:59:04.312Z,16.10
2019-05-05T07:01:35.128Z,15.50
2019-05-05T07:04:05.912Z,16.30
2019-05-05T07:06:50.995Z,16.30
2019-05-05T07:09:10.834Z,16.20
2019-05-05T07:11:43.543Z,16.30
2019-05-05T07:14:14.691Z,17.00
2019-05-05T07:16:46.884Z,16.70
2019-05-05T07:19:17.759Z,17.70
2019-05-05T07:21:48.591Z,17.30
2019-05-05T07:24:19.594Z,17.00
2019-05-05T07:26:51.598Z,17.00
2019-05-05T07:29:23.887Z,17.60
2019-05-05T07:31:56.132Z,18.90
2019-05-05T07:34:28.775Z,19.00
2019-05-05T07:36:59.532Z,17.50
2019-05-05T07:39:30.408Z,17.50
2019-05-05T07:42:01.195Z,18.70
2019-05-05T07:44:33.908Z,19.90
2019-05-05T07:47:05.037Z,19.80
2019-05-05T07:49:36.038Z,20.10
2019-05-05T07:52:07.106Z,18.80
2019-05-05T07:54:38.260Z,19.50
2019-05-05T07:57:10.615Z,20.70
2019-05-05T07:59:41.470Z,20.80
2019-05-05T08:02:14.602Z,19.80
2019-05-05T08:04:45.733Z,20.40
2019-05-05T08:07:17.757Z,19.20
2019-05-05T08:09:48.594Z,20.10
2019-05-05T08:12:19.429Z,20.30
2019-05-05T08:14:50.236Z,20.50
2019-05-05T08:17:39.295Z,19.70
2019-05-05T08:20:14.175Z,20.20
2019-05-05T08:22:44.550Z,19.10
2019-05-05T08:25:39.851Z,19.10
2019-05-05T08:28:07.338Z,19.60
2019-05-05T08:30:45.455Z,19.90
2019-05-05T08:33:16.320Z,20.20
2019-05-05T08:35:47.227Z,20.20
2019-05-05T08:38:18.165Z,20.20
2019-05-05T08:40:49.158Z,21.50
2019-05-05T08:43:20.142Z,21.60
2019-05-05T08:45:52.444Z,19.30
2019-05-05T08:48:24.621Z,20.40
2019-05-05T08:50:55.821Z,20.90
2019-05-05T08:53:40.734Z,20.60
2019-05-05T08:56:00.717Z,21.30
2019-05-05T08:58:31.706Z,18.90
2019-05-05T09:01:04.376Z,19.20
2019-05-05T09:03:36.005Z,16.60
2019-05-05T09:06:08.180Z,15.20
2019-05-05T09:08:39.017Z,18.10
2019-05-05T09:11:09.877Z,21.10
2019-05-05T09:13:40.626Z,21.70
2019-05-05T09:16:14.439Z,21.50
2019-05-05T09:18:50.672Z,21.30
2019-05-05T09:21:21.513Z,23.40
2019-05-05T09:23:59.981Z,19.50
2019-05-05T09:26:37.456Z,17.90
2019-05-05T09:29:16.142Z,18.00
2019-05-05T09:31:47.079Z,16.90
2019-05-05T09:34:17.922Z,19.10
2019-05-05T09:36:48.852Z,17.90
2019-05-05T09:39:19.765Z,15.80
2019-05-05T09:41:53.472Z,15.70
2019-05-05T09:44:24.279Z,15.40
2019-05-05T09:46:55.735Z,15.10
2019-05-05T09:49:26.820Z,15.90
2019-05-05T09:52:00.130Z,15.20
2019-05-05T09:54:31.007Z,15.60
2019-05-05T09:57:04.136Z,15.40
2019-05-05T09:59:34.786Z,15.30
2019-05-05T10:02:05.717Z,15.60
2019-05-05T10:04:37.564Z,14.50
2019-05-05T10:07:08.397Z,14.50
2019-05-05T10:09:39.418Z,14.60
2019-05-05T10:12:11.791Z,14.70
2019-05-05T10:14:44.755Z,14.90
2019-05-05T10:17:15.224Z,14.60
2019-05-05T10:19:46.059Z,14.30
2019-05-05T10:22:18.131Z,14.00
2019-05-05T10:24:50.906Z,16.80
2019-05-05T10:27:22.478Z,20.40
2019-05-05T10:29:54.706Z,20.70
2019-05-05T10:32:26.535Z,21.20
2019-05-05T10:35:04.160Z,18.40
2019-05-05T10:37:37.058Z,16.30
2019-05-05T10:40:10.971Z,16.10
2019-05-05T10:42:50.101Z,15.40
2019-05-05T10:45:24.499Z,15.50
2019-05-05T10:47:55.696Z,15.00
2019-05-05T10:50:27.317Z,15.10
2019-05-05T10:52:58.780Z,14.80
2019-05-05T10:55:30.074Z,17.70
2019-05-05T10:58:01.288Z,19.90
2019-05-05T11:00:44.687Z,24.20
2019-05-05T11:03:16.139Z,22.30
2019-05-05T11:05:47.455Z,19.00
2019-05-05T11:08:19.041Z,17.50
2019-05-05T11:10:50.345Z,16.30
2019-05-05T11:13:23.805Z,15.90
2019-05-05T11:15:54.813Z,15.50
2019-05-05T11:18:26.215Z,15.60
2019-05-05T11:20:57.337Z,16.10
2019-05-05T11:23:29.576Z,16.40
2019-05-05T11:26:00.758Z,16.40
2019-05-05T11:28:33.759Z,17.20
2019-05-05T11:31:05.025Z,17.40
2019-05-05T11:33:54.203Z,17.90
2019-05-05T11:36:28.691Z,19.50
2019-05-05T11:38:59.783Z,21.80
2019-05-05T11:41:31.949Z,21.80
2019-05-05T11:44:05.653Z,20.10
2019-05-05T11:46:36.792Z,17.60
2019-05-05T11:49:08.251Z,16.00
2019-05-05T11:51:38.978Z,15.30
2019-05-05T11:54:11.381Z,14.90
2019-05-05T11:56:44.542Z,14.40
2019-05-05T11:59:15.036Z,14.40
2019-05-05T12:01:46.246Z,14.50
2019-05-05T12:04:17.610Z,15.10
2019-05-05T12:06:48.667Z,15.10
2019-05-05T12:09:21.196Z,15.60
2019-05-05T12:11:54.501Z,15.20
2019-05-05T12:14:29.717Z,15.30
2019-05-05T12:17:01.875Z,14.80
2019-05-05T12:19:33.643Z,14.90
2019-05-05T12:22:05.694Z,14.70
2019-05-05T12:24:38.578Z,15.60
2019-05-05T12:27:11.220Z,18.40
2019-05-05T12:29:44.183Z,20.50
2019-05-05T12:32:15.348Z,21.60
2019-05-05T12:34:46.556Z,20.80
2019-05-05T12:37:17.770Z,20.80
2019-05-05T12:39:48.932Z,19.40
2019-05-05T12:42:20.192Z,18.20
2019-05-05T12:44:56.086Z,17.60
2019-05-05T12:47:34.107Z,17.00
2019-05-05T12:50:05.129Z,16.30
2019-05-05T12:52:36.774Z,15.00
2019-05-05T12:55:09.111Z,14.80
2019-05-05T12:57:40.437Z,14.10
2019-05-05T13:00:14.628Z,14.10
2019-05-05T13:02:46.920Z,14.50
2019-05-05T13:05:19.750Z,14.10
2019-05-05T13:07:51.712Z,14.80
2019-05-05T13:10:24.340Z,14.60
2019-05-05T13:12:58.044Z,15.40
2019-05-05T13:15:31.103Z,15.80
2019-05-05T13:18:03.648Z,16.40
2019-05-05T13:20:36.772Z,16.70
2019-05-05T13:23:09.469Z,16.30
2019-05-05T13:25:55.215Z,17.10
2019-05-05T13:28:16.956Z,17.90
2019-05-05T13:30:48.459Z,19.00
2019-05-05T13:33:20.047Z,20.60
2019-05-05T13:35:53.782Z,21.40
2019-05-05T13:38:26.310Z,22.30
2019-05-05T13:40:57.169Z,21.00
2019-05-05T13:43:28.010Z,20.80
2019-05-05T13:46:01.815Z,19.90
2019-05-05T13:48:33.776Z,18.80
2019-05-05T13:51:15.723Z,17.70
2019-05-05T13:53:47.199Z,16.80
2019-05-05T13:56:24.459Z,15.80
2019-05-05T13:58:56.036Z,16.20
2019-05-05T14:01:27.390Z,16.70
2019-05-05T14:03:59.188Z,16.70
2019-05-05T14:06:33.403Z,17.30
2019-05-05T14:09:06.383Z,17.70
2019-05-05T14:11:39.074Z,17.70
2019-05-05T14:14:13.789Z,18.70
2019-05-05T14:16:44.941Z,18.50
2019-05-05T14:19:15.820Z,18.80
2019-05-05T14:21:46.713Z,17.60
2019-05-05T14:24:37.619Z,16.70
2019-05-05T14:27:08.592Z,16.00
2019-05-05T14:29:50.244Z,15.50
2019-05-05T14:32:23.996Z,15.30
2019-05-05T14:34:59.458Z,15.10
2019-05-05T14:37:33.953Z,15.40
2019-05-05T14:40:06.768Z,15.30
2019-05-05T14:42:37.711Z,15.50
2019-05-05T14:45:11.373Z,15.90
2019-05-05T14:47:44.014Z,15.60
2019-05-05T14:50:15.531Z,15.90
2019-05-05T14:52:46.924Z,15.70
2019-05-05T14:55:18.927Z,16.60
2019-05-05T14:57:49.815Z,16.80
2019-05-05T15:00:24.215Z,16.90
2019-05-05T15:02:55.207Z,16.60
2019-05-05T15:05:47.574Z,15.80
2019-05-05T15:08:38.800Z,16.80
2019-05-05T15:11:11.409Z,16.60
2019-05-05T15:13:43.735Z,15.60
2019-05-05T15:16:14.711Z,15.80
2019-05-05T15:18:45.552Z,15.20
2019-05-05T15:21:16.299Z,14.80
2019-05-05T15:23:47.189Z,14.90
2019-05-05T15:26:18.037Z,14.60
2019-05-05T15:29:01.319Z,14.70
2019-05-05T15:31:23.663Z,14.90
2019-05-05T15:33:55.372Z,14.60
2019-05-05T15:36:26.075Z,14.60
2019-05-05T15:38:57.004Z,14.90
2019-05-05T15:41:27.881Z,14.80
2019-05-05T15:43:59.806Z,15.40
2019-05-05T15:46:33.583Z,15.10
2019-05-05T15:49:04.466Z,14.50
2019-05-05T15:51:35.198Z,14.40
2019-05-05T15:54:11.447Z,13.60
2019-05-05T15:56:42.312Z,13.30
2019-05-05T15:59:14.316Z,12.90
2019-05-05T16:01:45.725Z,13.10
2019-05-05T16:04:17.882Z,12.80
2019-05-05T16:06:49.915Z,12.80
2019-05-05T16:09:20.894Z,12.80
2019-05-05T16:11:51.892Z,12.90
2019-05-05T16:14:23.851Z,12.70
2019-05-05T16:17:04.513Z,12.80
2019-05-05T16:19:36.434Z,12.80
2019-05-05T16:22:08.999Z,12.60
2019-05-05T16:24:44.638Z,12.60
2019-05-05T16:27:21.806Z,12.70
2019-05-05T16:29:48.282Z,12.70
2019-05-05T16:32:22.123Z,12.70
2019-05-05T16:34:53.289Z,12.70
2019-05-05T16:37:24.876Z,12.80
2019-05-05T16:39:56.453Z,13.30
2019-05-05T16:42:27.258Z,13.50
2019-05-05T16:45:00.550Z,13.60
2019-05-05T16:47:33.609Z,13.80
2019-05-05T16:50:08.624Z,13.90
2019-05-05T16:52:46.077Z,13.50
2019-05-05T16:55:31.346Z,14.00
2019-05-05T16:58:04.047Z,14.00
2019-05-05T17:00:35.561Z,14.20
2019-05-05T17:03:06.823Z,14.00
2019-05-05T17:05:38.857Z,13.90
2019-05-05T17:08:10.589Z,13.90
2019-05-05T17:10:43.542Z,13.80
2019-05-05T17:13:17.635Z,13.50
2019-05-05T17:16:04.058Z,13.30
2019-05-05T17:18:55.096Z,13.30
2019-05-05T17:21:34.246Z,13.00
2019-05-05T17:24:05.197Z,12.80
2019-05-05T17:26:36.449Z,12.50
2019-05-05T17:29:08.662Z,12.30
2019-05-05T17:31:41.206Z,12.20
2019-05-05T17:34:16.033Z,12.10
2019-05-05T17:36:48.144Z,11.80
2019-05-05T17:39:20.857Z,11.80
2019-05-05T17:41:56.926Z,11.50
2019-05-05T17:44:30.175Z,11.20
2019-05-05T17:47:04.461Z,11.20
2019-05-05T17:49:37.667Z,11.10
2019-05-05T17:52:11.308Z,10.90
2019-05-05T17:54:48.088Z,10.60
2019-05-05T17:57:20.543Z,10.50
2019-05-05T17:59:53.619Z,10.40
2019-05-05T18:02:25.963Z,10.20
2019-05-05T18:04:59.532Z,9.90
2019-05-05T18:07:37.234Z,9.90
2019-05-05T18:10:17.245Z,9.60
2019-05-05T18:12:57.406Z,9.40
2019-05-05T18:15:48.358Z,9.40
2019-05-05T18:18:21.153Z,9.10
2019-05-05T18:20:54.255Z,8.90
2019-05-05T18:23:26.032Z,8.80
2019-05-05T18:25:58.348Z,8.60
2019-05-05T18:28:31.585Z,8.50
2019-05-05T18:31:05.637Z,8.50
2019-05-05T18:33:37.266Z,8.30
2019-05-05T18:36:09.462Z,8.10
2019-05-05T18:38:45.752Z,7.80
2019-05-05T18:41:20.445Z,7.70
2019-05-05T18:43:55.321Z,7.80
2019-05-05T18:46:27.548Z,7.70
2019-05-05T18:49:01.264Z,7.70
2019-05-05T18:51:34.749Z,7.60
2019-05-05T18:54:07.633Z,7.70
2019-05-05T18:56:40.071Z,7.80
2019-05-05T18:59:13.835Z,7.70
2019-05-05T19:01:49.251Z,7.70
2019-05-05T19:04:26.432Z,7.70
2019-05-05T19:07:00.385Z,7.70
2019-05-05T19:09:36.021Z,7.60
2019-05-05T19:12:10.246Z,7.50
2019-05-05T19:14:41.549Z,7.30
2019-05-05T19:17:15.782Z,7.20
2019-05-05T19:19:51.409Z,7.00
2019-05-05T19:22:23.480Z,7.00
2019-05-05T19:24:54.895Z,6.80
2019-05-05T19:27:28.650Z,6.60
2019-05-05T19:30:00.654Z,6.60
2019-05-05T19:32:34.923Z,6.80
2019-05-05T19:35:06.992Z,6.50
2019-05-05T19:37:40.033Z,6.70
2019-05-05T19:40:14.017Z,6.50
2019-05-05T19:42:46.334Z,6.40
2019-05-05T19:45:20.891Z,6.40
2019-05-05T19:47:52.485Z,6.30
2019-05-05T19:50:33.770Z,6.20
2019-05-05T19:53:10.344Z,6.10
2019-05-05T19:55:45.723Z,6.00
2019-05-05T19:58:19.574Z,6.00
2019-05-05T20:01:04.399Z,5.90
2019-05-05T20:03:29.160Z,5.90
2019-05-05T20:06:01.920Z,5.90
2019-05-05T20:08:40.944Z,5.90
2019-05-05T20:11:10.207Z,5.70
2019-05-05T20:13:44.589Z,5.70
2019-05-05T20:16:28.168Z,5.60
2019-05-05T20:19:04.251Z,5.70
2019-05-05T20:21:35.555Z,5.70
2019-05-05T20:24:08.458Z,5.60
2019-05-05T20:26:41.241Z,5.70
2019-05-05T20:29:16.554Z,5.70
2019-05-05T20:31:47.788Z,5.60
2019-05-05T20:34:21.153Z,5.50
2019-05-05T20:36:58.291Z,5.70
2019-05-05T20:39:29.929Z,5.60
2019-05-05T20:42:04.120Z,5.40
2019-05-05T20:44:38.515Z,5.30
2019-05-05T20:47:11.606Z,5.30
2019-05-05T20:49:44.527Z,5.20
2019-05-05T20:52:20.703Z,5.20
2019-05-05T20:54:59.511Z,5.00
2019-05-05T20:57:34.461Z,5.00
2019-05-05T21:00:09.668Z,4.90
2019-05-05T21:02:44.779Z,4.80
2019-05-05T21:05:18.996Z,4.80
2019-05-05T21:07:51.659Z,4.80
2019-05-05T21:10:25.809Z,4.90
2019-05-05T21:13:04.854Z,4.80
2019-05-05T21:15:41.922Z,4.70
2019-05-05T21:18:14.940Z,4.70
2019-05-05T21:20:56.223Z,4.70
2019-05-05T21:23:38.194Z,4.60
2019-05-05T21:26:14.855Z,4.60
2019-05-05T21:28:49.923Z,4.70
2019-05-05T21:31:21.134Z,4.80
2019-05-05T21:33:54.776Z,4.90
2019-05-05T21:36:29.954Z,4.80
2019-05-05T21:39:04.094Z,4.90
2019-05-05T21:41:40.232Z,4.90
2019-05-05T21:44:16.740Z,4.90
2019-05-05T21:46:48.977Z,5.00
2019-05-05T21:49:24.339Z,5.00
2019-05-05T21:51:58.445Z,4.90
2019-05-05T21:54:41.183Z,4.90
2019-05-05T21:57:18.019Z,4.80
2019-05-05T21:59:55.397Z,4.90
2019-05-05T22:02:23.599Z,4.90
2019-05-05T22:05:07.467Z,4.90
2019-05-05T22:07:44.263Z,4.90
2019-05-05T22:10:24.447Z,4.90
2019-05-05T22:13:05.316Z,5.10
2019-05-05T22:15:43.566Z,5.30
2019-05-05T22:18:15.831Z,5.40
2019-05-05T22:20:54.530Z,5.30
2019-05-05T22:23:37.232Z,5.40
2019-05-05T22:26:16.417Z,5.50
2019-05-05T22:28:54.175Z,5.50
2019-05-05T22:31:39.697Z,5.60
2019-05-05T22:34:11.857Z,5.60
2019-05-05T22:36:47.693Z,5.60
2019-05-05T22:39:24.129Z,5.60
2019-05-05T22:41:58.962Z,5.70
2019-05-05T22:44:31.160Z,5.80
2019-05-05T22:47:05.262Z,5.80
2019-05-05T22:49:44.531Z,5.90
2019-05-05T22:52:18.987Z,6.00
2019-05-05T22:54:59.347Z,6.00
2019-05-05T22:57:35.355Z,6.10
2019-05-05T23:00:29.958Z,6.10
2019-05-05T23:03:17.074Z,6.30
2019-05-05T23:06:00.299Z,6.30
2019-05-05T23:08:35.543Z,6.40
2019-05-05T23:11:10.417Z,6.30
2019-05-05T23:13:49.847Z,6.30
2019-05-05T23:16:38.310Z,6.40
2019-05-05T23:19:15.178Z,6.30
2019-05-05T23:21:54.306Z,6.30
2019-05-05T23:24:38.169Z,6.30
2019-05-05T23:27:22.242Z,6.20
2019-05-05T23:30:02.455Z,6.10
2019-05-05T23:32:43.876Z,6.00
2019-05-05T23:35:20.465Z,5.90
2019-05-05T23:37:58.199Z,5.80
2019-05-05T23:40:37.892Z,5.80
2019-05-05T23:43:13.943Z,5.60
2019-05-05T23:45:47.794Z,5.50
2019-05-05T23:48:28.794Z,5.40
2019-05-05T23:50:59.906Z,5.40
2019-05-05T23:53:37.650Z,5.40
2019-05-05T23:56:19.742Z,5.30
2019-05-05T23:58:51.696Z,5.20
